Little Rock, AR (72209)

6:56 PM CST on March 06, 2015 (GMT -0600)
Vimy Ridge / Shannon Hills | Change Station
CLOSE
Current Station
Personal Weather Station
Location: Alexander, AR
Elevation: 336 ft
Nearby Weather Stations

Elev 336 ft 34.64 °N, 92.42 °W | Updated 11 minutes ago

Clear
Clear
35.1 °F
Feels Like 35 °F
N
0.7
Wind Variable Wind from NE
Gusts 0.7 mph

Today
High -- | Low -- °F
--% Chance of Precip.
Yesterday
High -- | Low -- °F
Precip. -- in
6:32 AM 6:09 PM
Full, 99% visible
Pressure 30.51 in
Visibility 10.0 miles
Clouds Clear
Windchill 35 °F
Dew Point 19 °F
Humidity 52%
Rainfall in
Snow Depth Not available.
UV 0 out of 12
Pollen 5.90 out of 12
Air Quality Not available.
Flu Activity Not available.
METAR KLIT 062353Z 14006KT 10SM CLR 03/M07 A3049 RMK AO2 SLP331 T00281067 10033 20017 56013

More Conditions Fewer Conditions

Pressure 30.51 in
Visibility 10.0 miles
Clouds Clear
Windchill 35 °F
Dew Point 19 °F
Humidity 52%
Rainfall in
Snow Depth Not available.
UV 0 out of 12
Pollen 5.90 out of 12
Air Quality Not available.
Flu Activity Not available.
METAR KLIT 062353Z 14006KT 10SM CLR 03/M07 A3049 RMK AO2 SLP331 T00281067 10033 20017 56013

More Conditions Fewer Conditions

10-Day Weather Forecast

Almanac

Astronomy

Mar. 06, 2015 Rise Set
Actual Time
Civil Twilight
Nautical Twilight
Astronomical Twilight
Moon
Length of Visible Light
Length of Day
Tomorrow will be .
, % of the Moon is Illuminated

Today's Extremes

State Highs State Lows

Community

WunderPhotos

Upload Photos

1,803,469 photos uploaded!

WunderBlogs® & News

Nearby

Air Quality

  Air Quality AQ Index Pollutant
Not available.

Snow Depth

Station Depth Elevation

Earthquake Activity

City Distance Mag. Time & Date
Minimum magnitude displayed is 2.5.

Coastal Water Temperatures

Place Temperature

Nearby Weather Stations